createdAt,value
2019-02-28T00:01:32.081Z,10.63
2019-02-28T00:04:04.972Z,10.80
2019-02-28T00:06:37.926Z,10.77
2019-02-28T00:09:10.962Z,10.83
2019-02-28T00:11:44.049Z,10.70
2019-02-28T00:14:16.927Z,10.23
2019-02-28T00:16:49.843Z,10.67
2019-02-28T00:19:23.989Z,11.17
2019-02-28T00:21:57.414Z,10.73
2019-02-28T00:24:30.770Z,11.07
2019-02-28T00:27:04.069Z,10.50
2019-02-28T00:29:36.842Z,11.80
2019-02-28T00:32:09.679Z,11.80
2019-02-28T00:34:45.749Z,10.57
2019-02-28T00:37:18.815Z,10.83
2019-02-28T00:39:51.884Z,10.73
2019-02-28T00:42:24.680Z,10.70
2019-02-28T00:44:57.740Z,10.90
2019-02-28T00:47:30.702Z,11.00
2019-02-28T00:50:04.012Z,10.63
2019-02-28T00:52:36.954Z,10.17
2019-02-28T00:55:10.358Z,11.87
2019-02-28T00:57:43.297Z,12.80
2019-02-28T01:00:16.433Z,12.23
2019-02-28T01:02:53.446Z,12.00
2019-02-28T01:05:24.109Z,12.23
2019-02-28T01:07:57.374Z,11.63
2019-02-28T01:10:30.669Z,12.63
2019-02-28T01:13:03.573Z,12.33
2019-02-28T01:15:36.593Z,11.87
2019-02-28T01:18:09.429Z,12.47
2019-02-28T01:20:42.408Z,11.47
2019-02-28T01:23:15.387Z,11.67
2019-02-28T01:25:48.243Z,12.03
2019-02-28T01:28:23.366Z,12.23
2019-02-28T01:30:58.180Z,11.33
2019-02-28T01:33:30.929Z,12.37
2019-02-28T01:36:04.078Z,12.20
2019-02-28T01:38:36.797Z,12.57
2019-02-28T01:41:11.180Z,11.97
2019-02-28T01:43:44.213Z,11.97
2019-02-28T01:46:17.870Z,12.87
2019-02-28T01:48:50.743Z,12.30
2019-02-28T01:51:23.689Z,12.73
2019-02-28T01:53:56.496Z,13.63
2019-02-28T01:56:29.290Z,13.07
2019-02-28T01:59:02.139Z,13.03
2019-02-28T02:01:34.958Z,12.10
2019-02-28T02:04:07.943Z,12.20
2019-02-28T02:06:40.823Z,12.10
2019-02-28T02:09:13.799Z,12.10
2019-02-28T02:11:46.789Z,12.97
2019-02-28T02:14:19.655Z,13.73
2019-02-28T02:16:53.718Z,14.30
2019-02-28T02:19:26.554Z,13.93
2019-02-28T02:21:59.489Z,13.63
2019-02-28T02:24:32.287Z,13.43
2019-02-28T02:27:05.080Z,13.30
2019-02-28T02:29:38.175Z,13.30
2019-02-28T02:32:10.962Z,16.30
2019-02-28T02:34:45.204Z,13.83
2019-02-28T02:37:18.104Z,15.00
2019-02-28T02:39:51.347Z,14.77
2019-02-28T02:42:24.279Z,14.27
2019-02-28T02:44:57.360Z,14.13
2019-02-28T02:47:32.353Z,14.63
2019-02-28T02:50:05.979Z,15.83
2019-02-28T02:52:38.775Z,15.63
2019-02-28T02:55:12.350Z,16.17
2019-02-28T02:57:50.549Z,16.87
2019-02-28T03:00:20.300Z,15.30
2019-02-28T03:02:53.079Z,16.83
2019-02-28T03:05:25.924Z,17.33
2019-02-28T03:07:59.837Z,17.80
2019-02-28T03:10:33.825Z,17.73
2019-02-28T03:13:06.844Z,17.87
2019-02-28T03:15:39.800Z,20.23
2019-02-28T03:18:12.839Z,19.13
2019-02-28T03:20:45.779Z,17.53
2019-02-28T03:23:18.775Z,17.07
2019-02-28T03:25:51.826Z,21.00
2019-02-28T03:28:28.158Z,17.37
2019-02-28T03:31:11.804Z,18.13
2019-02-28T03:33:34.591Z,19.10
2019-02-28T03:36:07.745Z,18.63
2019-02-28T03:38:48.289Z,18.43
2019-02-28T03:41:17.834Z,16.87
2019-02-28T03:43:50.203Z,17.53
2019-02-28T03:46:23.061Z,17.00
2019-02-28T03:48:55.814Z,18.03
2019-02-28T03:51:29.584Z,17.87
2019-02-28T03:54:02.864Z,16.60
2019-02-28T03:56:35.713Z,19.20
2019-02-28T03:59:08.680Z,18.07
2019-02-28T04:01:45.695Z,20.73
2019-02-28T04:04:16.605Z,22.70
2019-02-28T04:06:49.523Z,21.33
2019-02-28T04:09:22.459Z,21.07
2019-02-28T04:11:55.470Z,19.90
2019-02-28T04:14:32.775Z,22.47
2019-02-28T04:17:03.132Z,23.33
2019-02-28T04:19:36.506Z,22.30
2019-02-28T04:22:09.670Z,20.10
2019-02-28T04:24:46.312Z,20.30
2019-02-28T04:27:17.470Z,24.37
2019-02-28T04:29:50.362Z,25.73
2019-02-28T04:32:27.698Z,24.17
2019-02-28T04:34:57.976Z,24.37
2019-02-28T04:37:30.771Z,22.73
2019-02-28T04:40:06.321Z,24.70
2019-02-28T04:42:39.126Z,26.83
2019-02-28T04:45:12.387Z,24.07
2019-02-28T04:47:45.200Z,23.43
2019-02-28T04:50:18.146Z,22.50
2019-02-28T04:52:51.331Z,22.77
2019-02-28T04:55:24.158Z,22.07
2019-02-28T04:57:57.107Z,20.53
2019-02-28T05:00:29.945Z,21.17
2019-02-28T05:03:03.262Z,20.60
2019-02-28T05:05:36.275Z,22.33
2019-02-28T05:08:09.466Z,24.50
2019-02-28T05:10:42.417Z,24.23
2019-02-28T05:13:15.406Z,24.07
2019-02-28T05:15:48.542Z,25.73
2019-02-28T05:18:21.624Z,24.83
2019-02-28T05:20:54.673Z,23.27
2019-02-28T05:23:27.413Z,25.67
2019-02-28T05:26:00.323Z,23.13
2019-02-28T05:28:33.363Z,25.23
2019-02-28T05:31:06.208Z,26.60
2019-02-28T05:33:42.068Z,27.93
2019-02-28T05:36:13.921Z,27.37
2019-02-28T05:38:46.879Z,28.97
2019-02-28T05:41:19.610Z,28.60
2019-02-28T05:43:52.786Z,29.57
2019-02-28T05:46:25.801Z,28.60
2019-02-28T05:48:58.922Z,28.77
2019-02-28T05:51:31.893Z,28.90
2019-02-28T05:54:04.712Z,30.03
2019-02-28T05:56:37.780Z,31.13
2019-02-28T05:59:10.792Z,30.70
2019-02-28T06:01:47.028Z,30.43
2019-02-28T06:04:18.862Z,32.87
2019-02-28T06:06:54.660Z,31.30
2019-02-28T06:09:26.989Z,33.23
2019-02-28T06:12:00.122Z,34.40
2019-02-28T06:14:32.886Z,33.67
2019-02-28T06:17:05.815Z,34.03
2019-02-28T06:19:40.194Z,33.73
2019-02-28T06:22:14.424Z,33.40
2019-02-28T06:24:47.211Z,35.20
2019-02-28T06:27:20.193Z,37.57
2019-02-28T06:29:52.959Z,36.90
2019-02-28T06:32:27.344Z,35.83
2019-02-28T06:35:00.333Z,35.63
2019-02-28T06:37:35.400Z,34.30
2019-02-28T06:40:10.123Z,34.40
2019-02-28T06:42:43.578Z,33.60
2019-02-28T06:45:17.982Z,34.20
2019-02-28T06:47:51.123Z,33.00
2019-02-28T06:50:24.237Z,36.47
2019-02-28T06:52:59.342Z,36.67
2019-02-28T06:55:32.186Z,35.20
2019-02-28T06:58:05.162Z,34.80
2019-02-28T07:00:38.154Z,36.53
2019-02-28T07:03:11.157Z,33.73
2019-02-28T07:05:44.193Z,34.47
2019-02-28T07:08:17.201Z,33.37
2019-02-28T07:10:50.320Z,35.43
2019-02-28T07:13:23.411Z,34.13
2019-02-28T07:15:59.038Z,34.30
2019-02-28T07:18:31.462Z,34.10
2019-02-28T07:21:07.754Z,37.10
2019-02-28T07:23:39.419Z,35.60
2019-02-28T07:26:12.314Z,37.43
2019-02-28T07:28:45.343Z,35.87
2019-02-28T07:31:18.127Z,38.70
2019-02-28T07:33:52.338Z,37.77
2019-02-28T07:36:25.787Z,37.63
2019-02-28T07:39:01.242Z,39.23
2019-02-28T07:41:34.673Z,38.27
2019-02-28T07:44:07.566Z,38.27
2019-02-28T07:46:42.429Z,39.43
2019-02-28T07:49:15.568Z,37.27
2019-02-28T07:51:48.349Z,37.17
2019-02-28T07:54:21.378Z,35.97
2019-02-28T07:56:54.248Z,34.40
2019-02-28T07:59:27.455Z,34.13
2019-02-28T08:02:03.227Z,35.00
2019-02-28T08:04:35.184Z,34.13
2019-02-28T08:07:11.368Z,33.87
2019-02-28T08:09:43.429Z,35.23
2019-02-28T08:12:16.318Z,32.93
2019-02-28T08:14:49.299Z,32.73
2019-02-28T08:17:22.066Z,34.20
2019-02-28T08:19:55.120Z,33.27
2019-02-28T08:22:28.308Z,33.17
2019-02-28T08:25:01.133Z,34.03
2019-02-28T08:27:34.350Z,33.70
2019-02-28T08:30:10.885Z,32.90
2019-02-28T08:32:46.866Z,32.80
2019-02-28T08:35:18.795Z,35.73
2019-02-28T08:37:55.821Z,34.03
2019-02-28T08:40:27.113Z,33.40
2019-02-28T08:43:00.120Z,34.33
2019-02-28T08:45:33.584Z,35.57
2019-02-28T08:48:07.570Z,34.95
2019-02-28T08:50:40.307Z,33.63
2019-02-28T08:53:15.390Z,34.80
2019-02-28T08:55:49.079Z,35.97
2019-02-28T08:58:22.325Z,35.17
2019-02-28T09:00:55.166Z,35.87
2019-02-28T09:03:28.153Z,37.00
2019-02-28T09:06:03.818Z,38.63
2019-02-28T09:08:41.501Z,34.95
2019-02-28T09:11:14.316Z,35.68
2019-02-28T09:13:47.216Z,35.90
2019-02-28T09:16:20.170Z,35.70
2019-02-28T09:18:53.265Z,35.78
2019-02-28T09:21:26.466Z,35.68
2019-02-28T09:23:59.416Z,33.92
2019-02-28T09:26:32.295Z,34.92
2019-02-28T09:29:06.337Z,35.28
2019-02-28T09:31:39.820Z,34.00
2019-02-28T09:34:13.093Z,34.60
2019-02-28T09:36:46.106Z,35.35
2019-02-28T09:39:19.566Z,34.85
2019-02-28T09:41:53.297Z,34.00
2019-02-28T09:44:26.465Z,33.23
2019-02-28T09:46:59.867Z,33.45
2019-02-28T09:49:33.012Z,32.55
2019-02-28T09:52:06.287Z,31.42
2019-02-28T09:54:42.049Z,33.08
2019-02-28T09:57:15.462Z,34.58
2019-02-28T09:59:50.067Z,33.60
2019-02-28T10:02:23.082Z,32.70
2019-02-28T10:04:56.872Z,31.77
2019-02-28T10:07:30.576Z,33.02
2019-02-28T10:10:04.298Z,32.08
2019-02-28T10:12:39.456Z,32.95
2019-02-28T10:15:16.521Z,32.95
2019-02-28T10:17:49.666Z,32.63
2019-02-28T10:20:27.006Z,33.40
2019-02-28T10:22:59.101Z,33.73
2019-02-28T10:25:32.503Z,34.55
2019-02-28T10:28:05.724Z,33.48
2019-02-28T10:30:38.791Z,33.63
2019-02-28T10:33:14.355Z,34.48
2019-02-28T10:35:46.738Z,34.65
2019-02-28T10:38:19.662Z,36.48
2019-02-28T10:40:53.313Z,36.00
2019-02-28T10:43:26.417Z,36.73
2019-02-28T10:45:59.212Z,35.60
2019-02-28T10:48:35.276Z,35.63
2019-02-28T10:51:13.951Z,36.63
2019-02-28T10:53:42.181Z,36.93
2019-02-28T10:56:15.222Z,36.20
2019-02-28T10:58:49.972Z,38.17
2019-02-28T11:01:23.782Z,35.35
2019-02-28T11:03:56.822Z,36.58
2019-02-28T11:06:31.593Z,37.13
2019-02-28T11:09:05.720Z,37.63
2019-02-28T11:11:42.540Z,38.53
2019-02-28T11:14:16.456Z,39.63
2019-02-28T11:16:49.893Z,38.65
2019-02-28T11:19:22.863Z,38.38
2019-02-28T11:21:55.737Z,37.48
2019-02-28T11:24:28.883Z,37.45
2019-02-28T11:27:03.023Z,36.65
2019-02-28T11:29:36.388Z,37.90
2019-02-28T11:32:09.626Z,39.42
2019-02-28T11:34:42.847Z,32.00
2019-02-28T11:37:17.618Z,31.42
2019-02-28T11:39:51.933Z,27.58
2019-02-28T11:42:28.062Z,29.55
2019-02-28T11:45:01.044Z,28.62
2019-02-28T11:47:33.998Z,29.32
2019-02-28T11:50:07.782Z,30.75
2019-02-28T11:52:41.042Z,31.33
2019-02-28T11:55:16.778Z,30.60
2019-02-28T11:57:48.927Z,28.92
2019-02-28T12:00:25.763Z,29.15
2019-02-28T12:03:00.726Z,30.52
2019-02-28T12:05:33.814Z,28.75
2019-02-28T12:08:10.372Z,31.40
2019-02-28T12:10:41.382Z,30.35
2019-02-28T12:13:16.565Z,30.37
2019-02-28T12:15:49.776Z,30.02
2019-02-28T12:18:22.910Z,30.35
2019-02-28T12:20:58.628Z,27.55
2019-02-28T12:23:30.832Z,29.90
2019-02-28T12:26:03.884Z,29.32
2019-02-28T12:28:38.254Z,30.62
2019-02-28T12:31:12.595Z,29.20
2019-02-28T12:33:45.379Z,28.95
2019-02-28T12:36:18.342Z,27.52
2019-02-28T12:38:51.259Z,27.93
2019-02-28T12:41:25.234Z,28.20
2019-02-28T12:43:59.061Z,30.62
2019-02-28T12:46:32.683Z,28.80
2019-02-28T12:49:05.813Z,32.65
2019-02-28T12:51:39.642Z,32.85
2019-02-28T12:54:13.327Z,32.25
2019-02-28T12:56:47.818Z,32.83
2019-02-28T12:59:21.324Z,34.20
2019-02-28T13:01:54.434Z,34.92
2019-02-28T13:04:27.598Z,36.15
2019-02-28T13:07:00.509Z,38.40
2019-02-28T13:09:33.433Z,40.28
2019-02-28T13:12:08.055Z,44.70
2019-02-28T13:14:41.841Z,47.25
2019-02-28T13:17:16.121Z,48.98
2019-02-28T13:19:49.204Z,54.63
2019-02-28T13:22:23.386Z,53.28
2019-02-28T13:24:57.173Z,54.45
2019-02-28T13:27:32.059Z,61.75
2019-02-28T13:30:10.449Z,64.45
2019-02-28T13:32:42.763Z,61.58
2019-02-28T13:35:18.019Z,59.40
2019-02-28T13:37:51.093Z,58.08
2019-02-28T13:40:24.326Z,48.98
2019-02-28T13:42:57.486Z,56.37
2019-02-28T13:45:30.823Z,55.12
2019-02-28T13:48:04.011Z,53.10
2019-02-28T13:50:37.038Z,44.83
2019-02-28T13:53:18.726Z,44.30
2019-02-28T13:55:45.704Z,42.43
2019-02-28T13:58:21.591Z,42.17
2019-02-28T14:00:53.322Z,44.67
2019-02-28T14:03:27.295Z,45.17
2019-02-28T14:06:00.203Z,43.30
2019-02-28T14:08:33.367Z,45.40
2019-02-28T14:11:10.286Z,44.47
2019-02-28T14:13:41.290Z,44.53
2019-02-28T14:16:14.429Z,40.57
2019-02-28T14:18:47.549Z,39.03
2019-02-28T14:21:20.384Z,37.23
2019-02-28T14:23:55.692Z,36.23
2019-02-28T14:26:28.783Z,35.87
2019-02-28T14:29:01.900Z,36.93
2019-02-28T14:31:34.965Z,37.90
2019-02-28T14:34:08.794Z,35.20
2019-02-28T14:36:41.798Z,36.70
2019-02-28T14:39:16.654Z,34.87
2019-02-28T14:41:49.495Z,38.30
2019-02-28T14:44:22.640Z,33.73
2019-02-28T14:46:55.615Z,35.30
2019-02-28T14:49:28.576Z,38.33
2019-02-28T14:52:03.547Z,35.05
2019-02-28T14:54:36.472Z,37.35
2019-02-28T14:57:09.257Z,39.95
2019-02-28T14:59:42.611Z,37.47
2019-02-28T15:02:15.521Z,39.83
2019-02-28T15:04:48.459Z,37.60
2019-02-28T15:07:21.530Z,36.68
2019-02-28T15:09:54.321Z,36.10
2019-02-28T15:12:27.158Z,33.23
2019-02-28T15:14:59.994Z,33.87
2019-02-28T15:17:32.975Z,31.48
2019-02-28T15:20:06.706Z,81.13
2019-02-28T15:22:40.277Z,29.13
2019-02-28T15:25:15.250Z,29.72
2019-02-28T15:27:50.861Z,27.17
2019-02-28T15:30:26.267Z,23.75
2019-02-28T15:32:59.196Z,21.10
2019-02-28T15:35:32.295Z,20.20
2019-02-28T15:38:08.753Z,21.05
2019-02-28T15:40:40.613Z,19.92
2019-02-28T15:43:17.005Z,19.67
2019-02-28T15:45:48.861Z,19.95
2019-02-28T15:48:22.035Z,18.25
2019-02-28T15:50:54.953Z,19.00
2019-02-28T15:53:27.940Z,18.95
2019-02-28T15:56:00.775Z,18.40
2019-02-28T15:58:34.304Z,18.57
2019-02-28T16:01:07.412Z,15.72
2019-02-28T16:03:40.400Z,17.05
2019-02-28T16:06:16.409Z,11.85
2019-02-28T16:08:48.297Z,12.33
2019-02-28T16:11:21.672Z,12.82
2019-02-28T16:13:57.489Z,12.18
2019-02-28T16:16:29.321Z,12.30
2019-02-28T16:19:02.586Z,11.70
2019-02-28T16:21:38.152Z,12.68
2019-02-28T16:24:10.203Z,17.25
2019-02-28T16:26:43.022Z,15.63
2019-02-28T16:29:20.384Z,12.88
2019-02-28T16:31:50.979Z,13.43
2019-02-28T16:34:24.232Z,14.03
2019-02-28T16:36:57.460Z,16.42
2019-02-28T16:39:32.394Z,15.93
2019-02-28T16:42:08.227Z,15.85
2019-02-28T16:44:40.516Z,14.28
2019-02-28T16:47:13.448Z,14.17
2019-02-28T16:49:46.349Z,15.25
2019-02-28T16:52:19.561Z,13.40
2019-02-28T16:54:53.366Z,11.10
2019-02-28T16:57:27.543Z,13.10
2019-02-28T17:00:04.134Z,12.13
2019-02-28T17:02:36.894Z,12.05
2019-02-28T17:05:10.919Z,11.70
2019-02-28T17:07:44.568Z,10.95
2019-02-28T17:10:19.063Z,29.67
2019-02-28T17:13:13.203Z,11.53
2019-02-28T17:15:55.783Z,11.30
2019-02-28T17:18:29.974Z,9.97
2019-02-28T17:21:03.288Z,10.35
2019-02-28T17:23:37.068Z,10.70
2019-02-28T17:26:10.796Z,9.87
2019-02-28T17:29:07.354Z,10.10
2019-02-28T17:31:44.462Z,11.27
2019-02-28T17:34:23.771Z,14.13
2019-02-28T17:36:53.752Z,13.47
2019-02-28T17:39:26.728Z,13.60
2019-02-28T17:42:08.127Z,12.30
2019-02-28T17:45:02.043Z,13.33
2019-02-28T17:48:14.766Z,11.90
2019-02-28T17:51:22.309Z,12.37
2019-02-28T17:54:11.522Z,12.20
2019-02-28T17:57:06.442Z,12.20
2019-02-28T18:00:30.538Z,13.03
2019-02-28T18:03:54.023Z,11.97
2019-02-28T18:06:53.246Z,11.13
2019-02-28T18:10:06.823Z,11.90
2019-02-28T18:13:32.878Z,11.93
2019-02-28T18:16:39.346Z,12.53
2019-02-28T18:20:07.330Z,11.18
2019-02-28T18:23:27.906Z,11.00
2019-02-28T18:26:41.791Z,11.00
2019-02-28T18:29:36.363Z,10.27
2019-02-28T18:32:09.333Z,10.73
2019-02-28T18:34:42.833Z,11.30
2019-02-28T18:37:15.813Z,11.10
2019-02-28T18:39:49.310Z,12.30
2019-02-28T18:42:22.637Z,11.77
2019-02-28T18:44:55.652Z,13.30
2019-02-28T18:47:28.709Z,13.03
2019-02-28T18:50:01.634Z,12.80
2019-02-28T18:52:34.502Z,12.75
2019-02-28T18:55:07.619Z,12.00
2019-02-28T18:57:40.783Z,12.67
2019-02-28T19:00:15.990Z,12.53
2019-02-28T19:02:49.423Z,11.60
2019-02-28T19:05:22.488Z,12.27
2019-02-28T19:07:55.715Z,12.17
2019-02-28T19:10:28.906Z,11.47
2019-02-28T19:13:01.930Z,11.10
2019-02-28T19:15:34.700Z,11.73
2019-02-28T19:18:07.720Z,12.67
2019-02-28T19:20:41.534Z,12.30
2019-02-28T19:23:14.364Z,12.63
2019-02-28T19:25:47.258Z,12.87
2019-02-28T19:28:20.369Z,12.23
2019-02-28T19:30:54.224Z,11.63
2019-02-28T19:33:28.140Z,11.43
2019-02-28T19:36:01.204Z,12.53
2019-02-28T19:38:37.395Z,12.17
2019-02-28T19:41:10.634Z,13.30
2019-02-28T19:43:43.717Z,14.63
2019-02-28T19:46:16.769Z,14.93
2019-02-28T19:48:49.751Z,15.30
2019-02-28T19:51:22.841Z,14.20
2019-02-28T19:53:55.891Z,15.50
2019-02-28T19:56:28.900Z,16.00
2019-02-28T19:59:02.842Z,16.17
2019-02-28T20:01:35.901Z,17.10
2019-02-28T20:04:08.984Z,17.33
2019-02-28T20:06:42.090Z,18.60
2019-02-28T20:09:14.985Z,19.27
2019-02-28T20:11:47.816Z,18.73
2019-02-28T20:14:20.680Z,19.90
2019-02-28T20:16:53.660Z,22.30
2019-02-28T20:19:26.904Z,21.43
2019-02-28T20:21:59.887Z,20.80
2019-02-28T20:24:32.799Z,21.30
2019-02-28T20:27:05.971Z,21.33
2019-02-28T20:29:38.999Z,22.07
2019-02-28T20:32:11.922Z,21.40
2019-02-28T20:34:44.985Z,21.57
2019-02-28T20:37:17.947Z,21.60
2019-02-28T20:39:51.112Z,21.13
2019-02-28T20:42:24.231Z,21.33
2019-02-28T20:44:58.206Z,21.97
2019-02-28T20:47:31.187Z,23.10
2019-02-28T20:50:08.298Z,22.57
2019-02-28T20:52:41.210Z,21.57
2019-02-28T20:55:14.184Z,22.80
2019-02-28T20:57:47.270Z,21.57
2019-02-28T21:00:23.731Z,22.83
2019-02-28T21:02:56.874Z,21.93
2019-02-28T21:05:29.864Z,23.80
2019-02-28T21:08:02.965Z,21.63
2019-02-28T21:10:36.257Z,22.83
2019-02-28T21:13:09.310Z,19.27
2019-02-28T21:15:42.461Z,18.10
2019-02-28T21:18:15.334Z,19.83
2019-02-28T21:20:48.260Z,20.67
2019-02-28T21:23:21.033Z,18.97
2019-02-28T21:25:54.191Z,18.50
2019-02-28T21:28:27.227Z,18.83
2019-02-28T21:31:00.344Z,18.50
2019-02-28T21:33:33.213Z,25.30
2019-02-28T21:36:06.195Z,18.57
2019-02-28T21:38:39.231Z,19.87
2019-02-28T21:41:12.609Z,18.37
2019-02-28T21:43:45.940Z,19.37
2019-02-28T21:46:19.997Z,20.53
2019-02-28T21:48:53.033Z,19.73
2019-02-28T21:51:26.387Z,22.73
2019-02-28T21:53:59.415Z,23.90
2019-02-28T21:56:32.539Z,26.10
2019-02-28T21:59:05.616Z,25.47
2019-02-28T22:01:38.491Z,28.70
2019-02-28T22:04:11.717Z,28.33
2019-02-28T22:06:44.841Z,28.20
2019-02-28T22:09:18.008Z,28.80
2019-02-28T22:11:51.114Z,30.67
2019-02-28T22:14:24.072Z,29.00
2019-02-28T22:16:57.018Z,28.67
2019-02-28T22:19:29.841Z,28.13
2019-02-28T22:22:02.710Z,29.27
2019-02-28T22:24:35.787Z,24.97
2019-02-28T22:27:08.825Z,25.57
2019-02-28T22:29:41.960Z,26.07
2019-02-28T22:32:29.687Z,25.03
2019-02-28T22:35:25.243Z,25.17
2019-02-28T22:37:58.387Z,26.93
2019-02-28T22:40:31.431Z,26.23
2019-02-28T22:43:04.436Z,25.27
2019-02-28T22:45:37.581Z,25.27
2019-02-28T22:48:10.860Z,26.20
2019-02-28T22:50:44.273Z,22.97
2019-02-28T22:53:17.526Z,21.17
2019-02-28T22:55:50.502Z,19.20
2019-02-28T22:58:23.894Z,18.93
2019-02-28T23:01:05.151Z,17.63
2019-02-28T23:03:39.444Z,17.30
2019-02-28T23:06:12.424Z,15.20
2019-02-28T23:08:45.543Z,15.57
2019-02-28T23:11:18.329Z,15.40
2019-02-28T23:13:51.748Z,16.07
2019-02-28T23:16:24.822Z,14.63
2019-02-28T23:18:58.121Z,17.90
2019-02-28T23:21:31.277Z,16.83
2019-02-28T23:24:04.324Z,17.57
2019-02-28T23:27:17.622Z,16.07
2019-02-28T23:30:02.943Z,15.00
2019-02-28T23:33:05.957Z,12.77
2019-02-28T23:35:41.026Z,13.10
2019-02-28T23:38:14.319Z,12.63
2019-02-28T23:40:47.406Z,11.80
2019-02-28T23:43:20.238Z,9.30
2019-02-28T23:45:53.018Z,10.67
2019-02-28T23:48:25.799Z,11.13
2019-02-28T23:50:58.668Z,12.17
2019-02-28T23:53:31.529Z,11.80
2019-02-28T23:56:04.369Z,12.00
2019-02-28T23:58:37.203Z,13.10
